createdAt,value
2022-09-15T00:01:34.509Z,18.16
2022-09-15T00:04:04.701Z,18.16
2022-09-15T00:06:34.786Z,18.22
2022-09-15T00:09:04.552Z,18.17
2022-09-15T00:11:36.350Z,18.24
2022-09-15T00:14:08.754Z,18.08
2022-09-15T00:16:41.115Z,18.24
2022-09-15T00:19:10.924Z,18.17
2022-09-15T00:21:42.756Z,18.14
2022-09-15T00:24:13.000Z,18.09
2022-09-15T00:26:42.586Z,18.17
2022-09-15T00:29:14.286Z,18.13
2022-09-15T00:31:46.622Z,18.12
2022-09-15T00:34:16.932Z,18.14
2022-09-15T00:36:46.752Z,18.19
2022-09-15T00:39:16.656Z,18.15
2022-09-15T00:41:46.602Z,18.06
2022-09-15T00:44:46.298Z,18.10
2022-09-15T00:47:20.178Z,17.97
2022-09-15T00:49:58.224Z,18.05
2022-09-15T00:52:34.052Z,18.04
2022-09-15T00:55:09.015Z,18.04
2022-09-15T00:57:41.894Z,18.04
2022-09-15T01:00:15.210Z,18.02
2022-09-15T01:02:50.511Z,18.12
2022-09-15T01:05:22.942Z,18.07
2022-09-15T01:07:56.465Z,18.11
2022-09-15T01:10:30.646Z,18.12
2022-09-15T01:13:02.955Z,18.03
2022-09-15T01:15:40.553Z,18.14
2022-09-15T01:18:20.048Z,18.14
2022-09-15T01:21:05.117Z,18.08
2022-09-15T01:24:08.200Z,18.02
2022-09-15T01:26:54.269Z,17.96
2022-09-15T01:30:04.965Z,18.01
2022-09-15T01:32:56.544Z,17.79
2022-09-15T01:35:34.767Z,18.00
2022-09-15T01:38:08.997Z,17.79
2022-09-15T01:40:43.004Z,17.83
2022-09-15T01:43:15.154Z,17.84
2022-09-15T01:45:51.101Z,17.90
2022-09-15T01:48:24.451Z,17.92
2022-09-15T01:50:58.483Z,17.95
2022-09-15T01:53:29.699Z,17.98
2022-09-15T01:56:05.233Z,17.98
2022-09-15T01:58:35.464Z,18.01
2022-09-15T02:01:11.801Z,17.93
2022-09-15T02:03:47.311Z,18.01
2022-09-15T02:06:24.198Z,17.87
2022-09-15T02:08:59.607Z,17.90
2022-09-15T02:11:30.522Z,18.00
2022-09-15T02:14:09.830Z,17.98
2022-09-15T02:16:46.826Z,17.97
2022-09-15T02:19:21.640Z,18.06
2022-09-15T02:21:57.266Z,17.97
2022-09-15T02:24:32.972Z,17.92
2022-09-15T02:27:04.999Z,17.86
2022-09-15T02:29:39.043Z,17.87
2022-09-15T02:32:12.692Z,17.90
2022-09-15T02:34:47.547Z,18.00
2022-09-15T02:37:17.951Z,18.06
2022-09-15T02:39:54.745Z,18.02
2022-09-15T02:42:28.503Z,18.08
2022-09-15T02:44:58.634Z,18.01
2022-09-15T02:47:32.198Z,17.98
2022-09-15T02:50:01.867Z,17.90
2022-09-15T02:52:31.464Z,17.92
2022-09-15T02:55:01.117Z,17.90
2022-09-15T02:57:30.771Z,17.90
2022-09-15T03:00:12.801Z,18.03
2022-09-15T03:02:46.927Z,18.01
2022-09-15T03:05:17.975Z,17.96
2022-09-15T03:07:47.713Z,17.97
2022-09-15T03:10:17.752Z,18.01
2022-09-15T03:12:49.478Z,18.02
2022-09-15T03:15:21.060Z,18.04
2022-09-15T03:17:53.552Z,17.97
2022-09-15T03:20:26.150Z,17.93
2022-09-15T03:22:55.831Z,17.93
2022-09-15T03:25:27.067Z,17.89
2022-09-15T03:27:56.874Z,17.89
2022-09-15T03:30:26.515Z,17.96
2022-09-15T03:32:58.849Z,17.82
2022-09-15T03:35:28.464Z,17.90
2022-09-15T03:37:58.079Z,17.91
2022-09-15T03:40:27.893Z,18.01
2022-09-15T03:42:57.654Z,17.92
2022-09-15T03:45:27.438Z,17.95
2022-09-15T03:47:59.763Z,17.80
2022-09-15T03:50:29.483Z,17.79
2022-09-15T03:52:59.108Z,17.78
2022-09-15T03:55:29.017Z,17.94
2022-09-15T03:57:58.761Z,17.86
2022-09-15T04:00:28.391Z,17.85
2022-09-15T04:03:00.776Z,17.91
2022-09-15T04:05:30.431Z,17.84
2022-09-15T04:08:00.070Z,17.94
2022-09-15T04:10:29.893Z,18.01
2022-09-15T04:12:59.841Z,18.05
2022-09-15T04:15:29.560Z,18.07
2022-09-15T04:18:01.822Z,17.93
2022-09-15T04:20:31.474Z,18.05
2022-09-15T04:23:01.426Z,18.08
2022-09-15T04:25:31.077Z,18.07
2022-09-15T04:28:00.740Z,17.96
2022-09-15T04:30:30.424Z,17.95
2022-09-15T04:33:02.867Z,17.90
2022-09-15T04:35:32.548Z,17.91
2022-09-15T04:38:02.141Z,17.97
2022-09-15T04:40:32.288Z,17.92
2022-09-15T04:43:01.979Z,17.94
2022-09-15T04:45:33.585Z,17.97
2022-09-15T04:48:05.958Z,18.07
2022-09-15T04:50:35.973Z,18.06
2022-09-15T04:53:05.757Z,17.91
2022-09-15T04:55:35.468Z,17.97
2022-09-15T04:58:06.477Z,17.90
2022-09-15T05:00:43.139Z,18.02
2022-09-15T05:03:17.062Z,18.04
2022-09-15T05:05:46.708Z,17.92
2022-09-15T05:08:16.686Z,17.89
2022-09-15T05:10:46.344Z,17.81
2022-09-15T05:13:16.028Z,17.97
2022-09-15T05:15:45.755Z,18.01
2022-09-15T05:18:18.066Z,18.01
2022-09-15T05:20:47.761Z,18.07
2022-09-15T05:23:17.400Z,17.99
2022-09-15T05:25:47.065Z,18.00
2022-09-15T05:28:16.943Z,18.01
2022-09-15T05:30:46.634Z,17.97
2022-09-15T05:33:18.925Z,17.96
2022-09-15T05:35:54.927Z,17.86
2022-09-15T05:38:24.756Z,17.90
2022-09-15T05:40:54.563Z,17.81
2022-09-15T05:43:24.255Z,17.79
2022-09-15T05:45:57.795Z,17.84
2022-09-15T05:48:30.097Z,17.77
2022-09-15T05:51:00.318Z,17.87
2022-09-15T05:53:31.084Z,17.88
2022-09-15T05:56:01.685Z,17.69
2022-09-15T05:58:31.743Z,17.67
2022-09-15T06:01:07.863Z,17.79
2022-09-15T06:03:40.798Z,17.71
2022-09-15T06:06:10.824Z,17.75
2022-09-15T06:08:44.281Z,17.70
2022-09-15T06:11:16.388Z,17.74
2022-09-15T06:13:46.582Z,17.68
2022-09-15T06:16:18.518Z,17.66
2022-09-15T06:18:52.400Z,17.60
2022-09-15T06:21:24.150Z,17.63
2022-09-15T06:23:56.665Z,17.71
2022-09-15T06:26:27.170Z,17.64
2022-09-15T06:28:58.556Z,17.66
2022-09-15T06:31:30.060Z,17.69
2022-09-15T06:34:04.132Z,17.68
2022-09-15T06:36:34.444Z,17.69
2022-09-15T06:39:04.068Z,17.74
2022-09-15T06:41:58.372Z,17.53
2022-09-15T06:44:23.546Z,17.53
2022-09-15T06:46:53.216Z,17.66
2022-09-15T06:49:25.497Z,17.69
2022-09-15T06:51:56.527Z,17.51
2022-09-15T06:54:26.259Z,17.61
2022-09-15T06:56:55.957Z,17.52
2022-09-15T06:59:25.710Z,17.37
2022-09-15T07:01:56.524Z,17.45
2022-09-15T07:04:28.820Z,17.50
2022-09-15T07:06:59.302Z,17.59
2022-09-15T07:09:28.992Z,17.55
2022-09-15T07:11:58.824Z,17.57
2022-09-15T07:14:28.619Z,17.55
2022-09-15T07:16:58.210Z,17.48
2022-09-15T07:19:30.393Z,17.51
2022-09-15T07:22:00.028Z,17.45
2022-09-15T07:24:29.683Z,17.51
2022-09-15T07:26:59.277Z,17.44
2022-09-15T07:29:29.011Z,17.41
2022-09-15T07:31:58.722Z,17.42
2022-09-15T07:34:31.206Z,17.55
2022-09-15T07:37:00.879Z,17.59
2022-09-15T07:39:31.098Z,17.65
2022-09-15T07:42:00.718Z,17.69
2022-09-15T07:44:30.303Z,17.51
2022-09-15T07:46:59.893Z,17.59
2022-09-15T07:49:32.051Z,17.59
2022-09-15T07:52:01.729Z,17.69
2022-09-15T07:54:31.359Z,17.79
2022-09-15T07:57:00.994Z,17.76
2022-09-15T07:59:31.166Z,17.80
2022-09-15T08:02:00.833Z,17.82
2022-09-15T08:04:33.187Z,17.82
2022-09-15T08:07:02.866Z,17.79
2022-09-15T08:09:32.526Z,17.82
2022-09-15T08:12:02.099Z,17.82
2022-09-15T08:14:32.899Z,17.88
2022-09-15T08:17:08.169Z,17.93
2022-09-15T08:19:43.132Z,17.86
2022-09-15T08:22:12.752Z,17.80
2022-09-15T08:24:42.482Z,17.82
2022-09-15T08:27:12.096Z,17.85
2022-09-15T08:29:41.830Z,17.78
2022-09-15T08:32:12.173Z,17.67
2022-09-15T08:34:44.529Z,17.77
2022-09-15T08:37:14.194Z,17.74
2022-09-15T08:39:46.830Z,17.68
2022-09-15T08:42:20.673Z,17.75
2022-09-15T08:44:55.634Z,17.79
2022-09-15T08:47:29.619Z,17.86
2022-09-15T08:50:05.739Z,17.86
2022-09-15T08:52:41.328Z,17.94
2022-09-15T08:55:18.062Z,18.01
2022-09-15T08:57:47.840Z,18.02
2022-09-15T09:00:19.202Z,18.01
2022-09-15T09:03:31.478Z,17.93
2022-09-15T09:06:15.179Z,17.94
2022-09-15T09:09:02.239Z,18.00
2022-09-15T09:11:45.592Z,18.11
2022-09-15T09:14:26.303Z,18.10
2022-09-15T09:17:09.223Z,18.00
2022-09-15T09:19:57.710Z,18.00
2022-09-15T09:22:35.243Z,18.06
2022-09-15T09:25:25.806Z,18.05
2022-09-15T09:27:56.592Z,18.00
2022-09-15T09:30:28.521Z,17.98
2022-09-15T09:33:10.628Z,17.85
2022-09-15T09:35:45.958Z,17.76
2022-09-15T09:38:22.729Z,17.68
2022-09-15T09:40:53.431Z,17.62
2022-09-15T09:43:23.409Z,17.64
2022-09-15T09:45:53.274Z,17.59
2022-09-15T09:48:25.070Z,17.60
2022-09-15T09:50:55.337Z,17.52
2022-09-15T09:53:32.864Z,17.60
2022-09-15T09:56:21.251Z,17.50
2022-09-15T09:58:51.714Z,17.46
2022-09-15T10:01:23.533Z,17.41
2022-09-15T10:04:12.904Z,17.42
2022-09-15T10:06:44.165Z,17.26
2022-09-15T10:09:19.554Z,17.17
2022-09-15T10:11:51.641Z,17.18
2022-09-15T10:14:29.077Z,16.93
2022-09-15T10:17:04.919Z,16.98
2022-09-15T10:19:39.335Z,16.95
2022-09-15T10:22:09.046Z,16.88
2022-09-15T10:24:42.825Z,16.79
2022-09-15T10:27:22.025Z,16.68
2022-09-15T10:29:51.669Z,16.67
2022-09-15T10:32:29.969Z,16.60
2022-09-15T10:35:12.655Z,16.61
2022-09-15T10:38:04.531Z,16.40
2022-09-15T10:40:46.634Z,16.40
2022-09-15T10:43:31.828Z,16.23
2022-09-15T10:46:06.837Z,16.29
2022-09-15T10:49:00.511Z,16.38
2022-09-15T10:51:43.494Z,16.30
2022-09-15T10:54:34.307Z,16.23
2022-09-15T10:57:19.792Z,16.23
2022-09-15T11:00:00.614Z,16.14
2022-09-15T11:02:53.447Z,16.00
2022-09-15T11:05:30.903Z,15.85
2022-09-15T11:08:35.701Z,15.92
2022-09-15T11:11:15.583Z,15.62
2022-09-15T11:13:59.814Z,15.81
2022-09-15T11:16:41.216Z,15.78
2022-09-15T11:19:24.524Z,15.75
2022-09-15T11:21:57.759Z,15.97
2022-09-15T11:24:35.404Z,15.92
2022-09-15T11:27:10.628Z,15.86
2022-09-15T11:29:59.556Z,15.83
2022-09-15T11:32:34.191Z,15.84
2022-09-15T11:35:16.638Z,16.00
2022-09-15T11:37:50.839Z,16.12
2022-09-15T11:40:26.586Z,16.09
2022-09-15T11:43:00.439Z,16.02
2022-09-15T11:45:40.942Z,16.10
2022-09-15T11:48:17.520Z,16.00
2022-09-15T11:50:51.778Z,15.90
2022-09-15T11:53:28.781Z,15.68
2022-09-15T11:56:04.508Z,15.81
2022-09-15T11:58:42.029Z,15.73
2022-09-15T12:01:19.495Z,16.02
2022-09-15T12:03:53.816Z,15.93
2022-09-15T12:06:27.522Z,16.01
2022-09-15T12:09:01.295Z,15.94
2022-09-15T12:11:34.303Z,15.95
2022-09-15T12:14:06.513Z,16.03
2022-09-15T12:16:38.996Z,16.16
2022-09-15T12:19:16.745Z,16.19
2022-09-15T12:21:55.604Z,16.12
2022-09-15T12:24:36.233Z,16.22
2022-09-15T12:27:06.044Z,16.09
2022-09-15T12:29:42.654Z,16.05
2022-09-15T12:32:26.810Z,16.14
2022-09-15T12:35:07.175Z,16.19
2022-09-15T12:37:44.187Z,16.47
2022-09-15T12:40:37.071Z,16.51
2022-09-15T12:43:23.007Z,16.37
2022-09-15T12:45:59.275Z,16.45
2022-09-15T12:48:33.086Z,16.34
2022-09-15T12:51:05.842Z,16.03
2022-09-15T12:53:38.170Z,15.95
2022-09-15T12:56:11.821Z,16.02
2022-09-15T12:58:44.632Z,16.34
2022-09-15T13:01:35.348Z,16.41
2022-09-15T13:04:28.541Z,16.26
2022-09-15T13:07:39.370Z,16.27
2022-09-15T13:10:31.294Z,16.50
2022-09-15T13:13:25.268Z,16.54
2022-09-15T13:15:58.587Z,16.56
2022-09-15T13:18:32.590Z,16.58
2022-09-15T13:21:10.584Z,16.55
2022-09-15T13:23:44.651Z,16.51
2022-09-15T13:26:22.713Z,16.50
2022-09-15T13:28:56.346Z,16.33
2022-09-15T13:31:45.853Z,16.28
2022-09-15T13:38:12.669Z,16.64
2022-09-15T13:41:13.103Z,16.65
2022-09-15T13:44:02.734Z,16.74
2022-09-15T13:46:47.619Z,16.73
2022-09-15T13:49:48.923Z,16.73
2022-09-15T13:52:35.706Z,16.96
2022-09-15T13:55:21.854Z,16.90
2022-09-15T14:00:51.956Z,17.04
2022-09-15T14:03:26.044Z,17.01
2022-09-15T14:05:56.851Z,16.94
2022-09-15T14:08:32.574Z,17.20
2022-09-15T14:11:08.616Z,17.27
2022-09-15T14:13:41.050Z,17.11
2022-09-15T14:16:23.823Z,17.16
2022-09-15T14:18:54.643Z,16.99
2022-09-15T14:21:26.853Z,16.96
2022-09-15T14:23:59.414Z,16.88
2022-09-15T14:26:33.803Z,16.57
2022-09-15T14:29:05.288Z,16.59
2022-09-15T14:31:37.888Z,16.74
2022-09-15T14:34:10.530Z,16.78
2022-09-15T14:36:40.236Z,16.99
2022-09-15T14:39:24.244Z,17.14
2022-09-15T14:41:56.670Z,17.27
2022-09-15T14:47:23.375Z,17.35
2022-09-15T14:50:07.706Z,17.60
2022-09-15T14:52:42.104Z,17.43
2022-09-15T14:55:18.990Z,17.53
2022-09-15T14:57:59.063Z,17.74
2022-09-15T15:00:32.302Z,17.61
2022-09-15T15:03:22.390Z,17.63
2022-09-15T15:06:02.645Z,17.81
2022-09-15T15:08:45.916Z,17.84
2022-09-15T15:11:18.282Z,17.80
2022-09-15T15:13:54.599Z,17.64
2022-09-15T15:16:27.131Z,17.44
2022-09-15T15:18:57.556Z,17.49
2022-09-15T15:21:37.850Z,17.50
2022-09-15T15:24:17.932Z,17.50
2022-09-15T15:26:49.122Z,17.22
2022-09-15T15:29:47.298Z,17.33
2022-09-15T15:32:18.826Z,17.35
2022-09-15T15:34:53.289Z,17.19
2022-09-15T15:37:29.079Z,17.28
2022-09-15T15:39:59.881Z,17.43
2022-09-15T15:42:31.297Z,17.43
2022-09-15T15:45:06.346Z,17.31
2022-09-15T15:47:39.263Z,17.32
2022-09-15T15:50:15.117Z,17.15
2022-09-15T15:52:45.263Z,17.07
2022-09-15T15:55:19.054Z,17.16
2022-09-15T15:57:52.927Z,17.12
2022-09-15T16:00:29.019Z,17.21
2022-09-15T16:02:58.869Z,17.28
2022-09-15T16:05:30.596Z,16.98
2022-09-15T16:08:03.899Z,16.88
2022-09-15T16:10:41.413Z,16.84
2022-09-15T16:13:12.388Z,16.76
2022-09-15T16:15:45.020Z,16.90
2022-09-15T16:18:14.890Z,16.75
2022-09-15T16:20:45.375Z,16.79
2022-09-15T16:23:18.517Z,16.64
2022-09-15T16:25:51.779Z,16.74
2022-09-15T16:28:21.421Z,16.76
2022-09-15T16:30:53.719Z,16.78
2022-09-15T16:33:23.959Z,16.80
2022-09-15T16:36:03.770Z,16.71
2022-09-15T16:38:33.493Z,16.66
2022-09-15T16:41:03.759Z,16.59
2022-09-15T16:43:33.525Z,16.54
2022-09-15T16:46:08.419Z,16.49
2022-09-15T16:48:38.094Z,16.52
2022-09-15T16:54:00.728Z,16.43
2022-09-15T16:56:30.715Z,16.49
2022-09-15T16:59:00.859Z,16.41
2022-09-15T17:01:33.472Z,16.42
2022-09-15T17:04:04.141Z,16.34
2022-09-15T17:06:33.873Z,16.29
2022-09-15T17:09:03.519Z,16.26
2022-09-15T17:11:33.203Z,16.31
2022-09-15T17:14:03.161Z,16.21
2022-09-15T17:16:35.398Z,16.26
2022-09-15T17:19:05.064Z,16.33
2022-09-15T17:21:34.742Z,16.27
2022-09-15T17:24:04.744Z,16.31
2022-09-15T17:26:34.617Z,16.33
2022-09-15T17:29:04.389Z,16.31
2022-09-15T17:31:37.147Z,16.32
2022-09-15T17:34:06.884Z,16.31
2022-09-15T17:36:37.372Z,16.34
2022-09-15T17:39:07.112Z,16.34
2022-09-15T17:41:38.713Z,16.31
2022-09-15T17:44:11.197Z,16.38
2022-09-15T17:46:43.501Z,16.45
2022-09-15T17:49:13.232Z,16.41
2022-09-15T17:51:42.881Z,16.39
2022-09-15T17:54:13.481Z,16.37
2022-09-15T17:56:43.071Z,16.26
2022-09-15T17:59:15.712Z,16.28
2022-09-15T18:01:48.743Z,16.26
2022-09-15T18:04:18.453Z,16.32
2022-09-15T18:06:48.457Z,16.32
2022-09-15T18:09:18.120Z,16.30
2022-09-15T18:11:47.800Z,16.34
2022-09-15T18:14:17.431Z,16.36
2022-09-15T18:16:49.654Z,16.26
2022-09-15T18:19:19.222Z,16.23
2022-09-15T18:21:54.948Z,16.28
2022-09-15T18:24:24.553Z,16.30
2022-09-15T18:26:54.211Z,16.29
2022-09-15T18:29:23.809Z,16.25
2022-09-15T18:31:58.173Z,16.26
2022-09-15T18:34:27.863Z,16.14
2022-09-15T18:36:57.468Z,16.17
2022-09-15T18:39:27.227Z,16.23
2022-09-15T18:41:57.266Z,16.19
2022-09-15T18:44:27.301Z,16.09
2022-09-15T18:46:59.879Z,16.06
2022-09-15T18:49:29.542Z,16.02
2022-09-15T18:51:59.376Z,15.95
2022-09-15T18:54:29.045Z,15.88
2022-09-15T18:56:58.797Z,15.95
2022-09-15T18:59:28.526Z,16.02
2022-09-15T19:02:00.897Z,16.02
2022-09-15T19:04:33.336Z,16.05
2022-09-15T19:07:04.710Z,16.03
2022-09-15T19:09:34.390Z,15.97
2022-09-15T19:12:04.713Z,15.95
2022-09-15T19:14:35.097Z,16.05
2022-09-15T19:17:07.561Z,15.96
2022-09-15T19:19:37.414Z,15.98
2022-09-15T19:22:07.478Z,15.91
2022-09-15T19:24:37.148Z,15.95
2022-09-15T19:27:08.827Z,15.95
2022-09-15T19:29:40.151Z,15.91
2022-09-15T19:32:14.320Z,15.97
2022-09-15T19:34:44.672Z,15.92
2022-09-15T19:37:18.678Z,16.00
2022-09-15T19:39:49.324Z,16.03
2022-09-15T19:42:19.116Z,16.02
2022-09-15T19:44:49.576Z,16.07
2022-09-15T19:47:21.835Z,16.24
2022-09-15T19:49:53.553Z,16.10
2022-09-15T19:52:23.361Z,15.92
2022-09-15T19:54:52.973Z,16.09
2022-09-15T19:57:22.741Z,15.98
2022-09-15T19:59:52.423Z,15.97
2022-09-15T20:02:24.666Z,15.92
2022-09-15T20:04:54.348Z,15.91
2022-09-15T20:07:23.957Z,15.85
2022-09-15T20:09:54.204Z,15.92
2022-09-15T20:12:23.820Z,15.82
2022-09-15T20:14:53.458Z,15.74
2022-09-15T20:17:25.999Z,15.73
2022-09-15T20:19:55.695Z,15.93
2022-09-15T20:22:25.377Z,16.04
2022-09-15T20:24:56.212Z,15.92
2022-09-15T20:27:25.855Z,15.89
2022-09-15T20:29:57.283Z,15.78
2022-09-15T20:32:33.327Z,15.62
2022-09-15T20:35:03.142Z,15.71
2022-09-15T20:37:37.274Z,15.59
2022-09-15T20:40:09.503Z,15.55
2022-09-15T20:42:39.689Z,15.46
2022-09-15T20:45:10.779Z,15.38
2022-09-15T20:47:43.084Z,15.39
2022-09-15T20:50:13.018Z,15.47
2022-09-15T20:52:42.647Z,15.25
2022-09-15T20:55:12.679Z,15.29
2022-09-15T20:57:42.323Z,15.50
2022-09-15T21:00:13.306Z,15.31
2022-09-15T21:02:45.624Z,15.44
2022-09-15T21:05:15.347Z,15.01
2022-09-15T21:07:45.008Z,15.05
2022-09-15T21:10:14.663Z,15.32
2022-09-15T21:12:44.353Z,15.01
2022-09-15T21:15:14.340Z,15.20
2022-09-15T21:17:46.615Z,15.05
2022-09-15T21:20:16.643Z,15.11
2022-09-15T21:22:46.295Z,15.00
2022-09-15T21:25:16.166Z,14.85
2022-09-15T21:27:46.906Z,14.96
2022-09-15T21:30:17.165Z,14.85
2022-09-15T21:32:49.464Z,14.87
2022-09-15T21:35:19.144Z,14.94
2022-09-15T21:37:48.843Z,14.85
2022-09-15T21:40:18.779Z,14.88
2022-09-15T21:42:48.567Z,14.77
2022-09-15T21:45:18.417Z,14.86
2022-09-15T21:47:50.650Z,14.76
2022-09-15T21:50:20.385Z,14.81
2022-09-15T21:52:50.324Z,14.64
2022-09-15T21:55:19.991Z,14.65
2022-09-15T21:57:49.855Z,14.78
2022-09-15T22:00:19.702Z,14.71
2022-09-15T22:02:56.081Z,14.75
2022-09-15T22:05:25.952Z,14.66
2022-09-15T22:07:55.791Z,14.76
2022-09-15T22:10:25.496Z,14.70
2022-09-15T22:12:55.675Z,14.73
2022-09-15T22:15:25.342Z,14.79
2022-09-15T22:17:57.965Z,14.71
2022-09-15T22:20:28.117Z,14.70
2022-09-15T22:22:58.686Z,14.56
2022-09-15T22:25:28.977Z,14.56
2022-09-15T22:27:58.678Z,14.53
2022-09-15T22:30:28.350Z,14.46
2022-09-15T22:33:00.620Z,14.37
2022-09-15T22:35:30.279Z,14.55
2022-09-15T22:37:59.959Z,14.44
2022-09-15T22:40:29.661Z,14.54
2022-09-15T22:42:59.505Z,14.48
2022-09-15T22:45:29.155Z,14.49
2022-09-15T22:48:01.652Z,14.64
2022-09-15T22:50:31.306Z,14.64
2022-09-15T22:53:00.981Z,14.42
2022-09-15T22:55:30.663Z,14.38
2022-09-15T22:58:00.763Z,14.37
2022-09-15T23:00:32.712Z,14.27
2022-09-15T23:03:05.081Z,14.18
2022-09-15T23:05:34.939Z,14.20
2022-09-15T23:08:06.137Z,14.20
2022-09-15T23:10:35.976Z,14.12
2022-09-15T23:13:05.673Z,14.34
2022-09-15T23:15:37.330Z,14.15
2022-09-15T23:18:10.292Z,14.15
2022-09-15T23:20:40.547Z,14.28
2022-09-15T23:23:10.608Z,14.44
2022-09-15T23:25:40.806Z,14.24
2022-09-15T23:28:10.446Z,14.32
2022-09-15T23:30:41.493Z,14.31
2022-09-15T23:33:13.741Z,14.38
2022-09-15T23:35:43.383Z,14.29
2022-09-15T23:38:13.006Z,14.32
2022-09-15T23:40:44.323Z,14.33
2022-09-15T23:43:14.872Z,14.20
2022-09-15T23:45:45.692Z,14.15
2022-09-15T23:48:17.915Z,14.29
2022-09-15T23:50:47.582Z,14.37
2022-09-15T23:53:17.352Z,14.43
2022-09-15T23:55:47.889Z,14.45
2022-09-15T23:58:18.162Z,14.36
